createdAt,value
2019-02-18T00:00:56.838Z,29.55
2019-02-18T00:02:33.837Z,25.03
2019-02-18T00:04:09.029Z,28.37
2019-02-18T00:05:44.260Z,25.87
2019-02-18T00:07:19.425Z,25.43
2019-02-18T00:08:54.624Z,28.73
2019-02-18T00:10:31.487Z,32.23
2019-02-18T00:12:06.704Z,26.87
2019-02-18T00:13:41.971Z,28.70
2019-02-18T00:15:17.420Z,27.17
2019-02-18T00:16:52.633Z,31.37
2019-02-18T00:18:27.826Z,25.62
2019-02-18T00:20:03.028Z,29.40
2019-02-18T00:21:38.252Z,25.10
2019-02-18T00:23:13.416Z,25.77
2019-02-18T00:24:48.644Z,28.53
2019-02-18T00:26:24.305Z,25.43
2019-02-18T00:27:59.500Z,27.97
2019-02-18T00:29:34.743Z,29.23
2019-02-18T00:31:10.030Z,27.33
2019-02-18T00:32:45.189Z,27.93
2019-02-18T00:34:20.404Z,29.90
2019-02-18T00:35:55.908Z,27.97
2019-02-18T00:37:31.100Z,28.37
2019-02-18T00:39:06.512Z,29.07
2019-02-18T00:40:41.721Z,25.57
2019-02-18T00:42:16.943Z,29.50
2019-02-18T00:43:52.576Z,27.05
2019-02-18T00:45:27.777Z,27.20
2019-02-18T00:47:02.966Z,25.40
2019-02-18T00:48:38.205Z,29.37
2019-02-18T00:50:13.390Z,29.70
2019-02-18T00:51:49.671Z,25.87
2019-02-18T00:53:24.839Z,26.90
2019-02-18T00:55:00.200Z,28.57
2019-02-18T00:56:35.349Z,32.50
2019-02-18T00:58:10.589Z,28.43
2019-02-18T00:59:45.818Z,30.90
2019-02-18T01:01:21.040Z,27.73
2019-02-18T01:02:56.305Z,27.40
2019-02-18T01:04:31.756Z,26.55
2019-02-18T01:06:07.247Z,30.70
2019-02-18T01:07:42.780Z,24.87
2019-02-18T01:09:17.982Z,26.43
2019-02-18T01:10:53.246Z,27.07
2019-02-18T01:12:28.479Z,24.40
2019-02-18T01:14:03.690Z,29.87
2019-02-18T01:15:39.262Z,27.60
2019-02-18T01:17:14.801Z,29.77
2019-02-18T01:18:49.982Z,24.33
2019-02-18T01:20:25.185Z,27.37
2019-02-18T01:22:00.412Z,28.50
2019-02-18T01:23:35.628Z,27.90
2019-02-18T01:25:13.300Z,32.07
2019-02-18T01:26:48.502Z,31.03
2019-02-18T01:28:23.714Z,28.10
2019-02-18T01:29:58.936Z,32.10
2019-02-18T01:31:34.153Z,32.40
2019-02-18T01:33:09.684Z,27.60
2019-02-18T01:34:44.857Z,29.60
2019-02-18T01:36:20.056Z,26.57
2019-02-18T01:37:55.281Z,26.17
2019-02-18T01:39:30.492Z,28.17
2019-02-18T01:41:05.742Z,32.40
2019-02-18T01:42:40.987Z,30.70
2019-02-18T01:44:16.542Z,26.27
2019-02-18T01:45:53.130Z,30.08
2019-02-18T01:47:28.324Z,31.00
2019-02-18T01:49:03.922Z,27.32
2019-02-18T01:50:39.129Z,29.30
2019-02-18T01:52:14.322Z,26.23
2019-02-18T01:53:49.515Z,23.70
2019-02-18T01:55:24.702Z,26.87
2019-02-18T01:56:59.931Z,25.23
2019-02-18T01:58:35.157Z,28.63
2019-02-18T02:00:15.858Z,22.37
2019-02-18T02:01:51.372Z,23.67
2019-02-18T02:03:26.549Z,28.23
2019-02-18T02:05:01.866Z,28.65
2019-02-18T02:06:38.161Z,27.03
2019-02-18T02:08:13.683Z,25.43
2019-02-18T02:09:48.917Z,26.13
2019-02-18T02:11:24.140Z,26.27
2019-02-18T02:13:31.623Z,28.97
2019-02-18T02:15:14.223Z,29.00
2019-02-18T02:16:49.433Z,27.90
2019-02-18T02:18:24.643Z,26.73
2019-02-18T02:19:59.842Z,27.95
2019-02-18T02:21:35.099Z,26.52
2019-02-18T02:23:10.325Z,34.67
2019-02-18T02:24:45.535Z,29.57
2019-02-18T02:26:20.752Z,30.30
2019-02-18T02:27:56.046Z,28.80
2019-02-18T02:29:31.238Z,30.90
2019-02-18T02:31:06.413Z,31.17
2019-02-18T02:32:41.628Z,30.63
2019-02-18T02:34:16.906Z,31.73
2019-02-18T02:35:52.172Z,32.63
2019-02-18T02:37:27.377Z,34.23
2019-02-18T02:39:02.634Z,34.77
2019-02-18T02:40:39.434Z,32.23
2019-02-18T02:42:14.655Z,30.80
2019-02-18T02:43:50.950Z,35.53
2019-02-18T02:45:26.168Z,31.83
2019-02-18T02:47:01.378Z,30.57
2019-02-18T02:48:36.601Z,30.37
2019-02-18T02:50:12.105Z,33.73
2019-02-18T02:51:47.363Z,29.67
2019-02-18T02:53:23.698Z,33.13
2019-02-18T02:54:58.907Z,32.57
2019-02-18T02:56:34.149Z,30.23
2019-02-18T02:58:09.361Z,31.57
2019-02-18T02:59:44.596Z,28.33
2019-02-18T03:01:19.795Z,24.73
2019-02-18T03:02:55.267Z,30.43
2019-02-18T03:04:30.527Z,30.47
2019-02-18T03:06:05.704Z,28.17
2019-02-18T03:07:40.886Z,30.70
2019-02-18T03:09:16.100Z,31.83
2019-02-18T03:10:51.564Z,31.33
2019-02-18T03:12:26.792Z,31.27
2019-02-18T03:14:01.985Z,31.87
2019-02-18T03:15:37.196Z,30.50
2019-02-18T03:17:12.448Z,26.17
2019-02-18T03:18:47.679Z,30.90
2019-02-18T03:20:24.289Z,34.33
2019-02-18T03:21:59.477Z,31.87
2019-02-18T03:23:34.675Z,28.30
2019-02-18T03:25:25.210Z,33.58
2019-02-18T03:27:00.376Z,33.23
2019-02-18T03:28:43.212Z,33.53
2019-02-18T03:31:00.458Z,34.20
2019-02-18T03:32:35.753Z,31.57
2019-02-18T03:34:27.804Z,28.30
2019-02-18T03:36:04.006Z,27.67
2019-02-18T03:37:39.237Z,31.37
2019-02-18T03:39:14.763Z,34.87
2019-02-18T03:40:50.218Z,34.03
2019-02-18T03:42:25.426Z,33.73
2019-02-18T03:44:00.642Z,32.73
2019-02-18T03:45:35.870Z,33.23
2019-02-18T03:47:11.097Z,36.60
2019-02-18T03:48:46.301Z,31.13
2019-02-18T03:50:21.517Z,31.53
2019-02-18T03:51:56.746Z,33.87
2019-02-18T03:53:31.954Z,37.77
2019-02-18T03:55:09.871Z,33.00
2019-02-18T03:56:45.109Z,34.80
2019-02-18T03:58:20.588Z,33.10
2019-02-18T03:59:55.791Z,33.23
2019-02-18T04:01:31.038Z,31.43
2019-02-18T04:03:06.248Z,34.63
2019-02-18T04:04:41.463Z,33.60
2019-02-18T04:06:16.950Z,33.03
2019-02-18T04:07:52.179Z,33.13
2019-02-18T04:09:27.388Z,34.90
2019-02-18T04:11:02.882Z,31.03
2019-02-18T04:12:38.369Z,39.03
2019-02-18T04:14:13.598Z,35.73
2019-02-18T04:15:48.811Z,35.30
2019-02-18T04:17:24.491Z,33.78
2019-02-18T04:19:00.014Z,33.17
2019-02-18T04:20:35.163Z,35.13
2019-02-18T04:22:10.377Z,35.43
2019-02-18T04:23:45.613Z,33.87
2019-02-18T04:25:20.839Z,33.17
2019-02-18T04:26:56.076Z,32.90
2019-02-18T04:28:31.283Z,33.23
2019-02-18T04:30:10.387Z,33.07
2019-02-18T04:31:45.568Z,36.70
2019-02-18T04:33:20.808Z,30.87
2019-02-18T04:34:56.298Z,34.37
2019-02-18T04:36:31.499Z,33.58
2019-02-18T04:38:06.736Z,31.07
2019-02-18T04:39:41.933Z,30.85
2019-02-18T04:41:18.356Z,31.47
2019-02-18T04:42:54.646Z,33.57
2019-02-18T04:44:29.860Z,37.48
2019-02-18T04:46:05.133Z,34.85
2019-02-18T04:47:40.352Z,35.28
2019-02-18T04:49:15.566Z,32.53
2019-02-18T04:50:50.756Z,36.13
2019-02-18T04:52:26.146Z,32.50
2019-02-18T04:54:01.360Z,31.93
2019-02-18T04:55:36.573Z,30.10
2019-02-18T04:57:11.824Z,33.13
2019-02-18T04:58:47.023Z,33.17
2019-02-18T05:00:22.218Z,35.93
2019-02-18T05:01:57.457Z,28.20
2019-02-18T05:03:32.691Z,32.35
2019-02-18T05:05:10.435Z,33.08
2019-02-18T05:06:45.617Z,31.23
2019-02-18T05:08:20.847Z,33.30
2019-02-18T05:09:56.311Z,31.50
2019-02-18T05:11:31.575Z,33.10
2019-02-18T05:13:06.782Z,34.20
2019-02-18T05:14:42.267Z,32.78
2019-02-18T05:16:17.542Z,33.73
2019-02-18T05:17:53.015Z,29.97
2019-02-18T05:19:28.248Z,31.13
2019-02-18T05:21:03.694Z,34.57
2019-02-18T05:22:38.946Z,31.90
2019-02-18T05:24:14.382Z,30.90
2019-02-18T05:25:49.593Z,32.77
2019-02-18T05:27:32.974Z,34.58
2019-02-18T05:29:02.204Z,27.98
2019-02-18T05:30:37.394Z,31.48
2019-02-18T05:32:12.611Z,34.67
2019-02-18T05:33:47.805Z,33.17
2019-02-18T05:35:23.002Z,29.50
2019-02-18T05:36:58.212Z,31.90
2019-02-18T05:38:33.440Z,32.17
2019-02-18T05:40:09.221Z,29.97
2019-02-18T05:41:44.464Z,31.93
2019-02-18T05:43:19.658Z,28.20
2019-02-18T05:44:55.431Z,32.90
2019-02-18T05:46:30.643Z,35.10
2019-02-18T05:48:05.824Z,32.53
2019-02-18T05:49:41.047Z,30.90
2019-02-18T05:51:16.203Z,34.37
2019-02-18T05:52:51.688Z,33.43
2019-02-18T05:54:26.895Z,29.17
2019-02-18T05:56:02.098Z,34.20
2019-02-18T05:57:37.328Z,33.27
2019-02-18T05:59:12.584Z,34.77
2019-02-18T06:00:47.750Z,33.20
2019-02-18T06:02:23.128Z,35.73
2019-02-18T06:04:00.187Z,29.03
2019-02-18T06:05:35.509Z,30.77
2019-02-18T06:07:10.999Z,32.53
2019-02-18T06:08:46.197Z,34.90
2019-02-18T06:10:21.448Z,32.47
2019-02-18T06:11:56.673Z,32.90
2019-02-18T06:13:31.873Z,38.60
2019-02-18T06:15:09.818Z,32.93
2019-02-18T06:16:47.101Z,32.53
2019-02-18T06:18:23.264Z,34.23
2019-02-18T06:20:00.114Z,34.18
2019-02-18T06:21:35.363Z,37.83
2019-02-18T06:23:10.580Z,36.43
2019-02-18T06:24:45.807Z,38.77
2019-02-18T06:26:21.028Z,35.60
2019-02-18T06:27:56.279Z,31.47
2019-02-18T06:29:31.459Z,40.77
2019-02-18T06:31:06.659Z,35.20
2019-02-18T06:32:41.900Z,35.47
2019-02-18T06:34:17.126Z,32.57
2019-02-18T06:35:52.336Z,37.43
2019-02-18T06:37:27.565Z,34.33
2019-02-18T06:39:04.894Z,35.27
2019-02-18T06:40:40.117Z,37.30
2019-02-18T06:42:15.568Z,34.53
2019-02-18T06:43:50.772Z,35.80
2019-02-18T06:45:30.662Z,32.73
2019-02-18T06:47:11.879Z,43.33
2019-02-18T06:50:29.853Z,37.27
2019-02-18T06:52:05.055Z,36.70
2019-02-18T06:53:40.245Z,38.20
2019-02-18T06:55:15.466Z,35.17
2019-02-18T06:56:58.284Z,33.30
2019-02-18T06:58:44.103Z,39.60
2019-02-18T07:00:21.111Z,34.23
2019-02-18T07:02:01.031Z,35.83
2019-02-18T07:03:43.770Z,43.20
2019-02-18T07:05:20.917Z,36.27
2019-02-18T07:07:03.873Z,36.53
2019-02-18T07:08:56.716Z,38.33
2019-02-18T07:10:36.639Z,36.30
2019-02-18T07:12:13.470Z,40.23
2019-02-18T07:13:48.660Z,35.50
2019-02-18T07:15:23.892Z,38.37
2019-02-18T07:16:59.079Z,35.97
2019-02-18T07:18:34.257Z,44.17
2019-02-18T07:20:09.468Z,40.63
2019-02-18T07:21:44.655Z,35.17
2019-02-18T07:23:19.851Z,37.13
2019-02-18T07:24:55.065Z,37.00
2019-02-18T07:26:30.263Z,46.67
2019-02-18T07:28:05.448Z,38.08
2019-02-18T07:29:40.652Z,41.30
2019-02-18T07:31:15.846Z,37.43
2019-02-18T07:32:51.025Z,37.13
2019-02-18T07:34:26.488Z,41.90
2019-02-18T07:36:02.852Z,39.80
2019-02-18T07:37:40.638Z,40.67
2019-02-18T07:39:14.877Z,44.00
2019-02-18T07:40:50.082Z,40.20
2019-02-18T07:42:26.461Z,42.33
2019-02-18T07:44:01.630Z,40.95
2019-02-18T07:45:37.131Z,37.60
2019-02-18T07:47:12.322Z,42.10
2019-02-18T07:48:47.534Z,42.57
2019-02-18T07:50:24.561Z,42.05
2019-02-18T07:51:59.725Z,42.83
2019-02-18T07:53:34.926Z,42.93
2019-02-18T07:55:10.494Z,42.17
2019-02-18T07:56:45.696Z,43.97
2019-02-18T07:58:20.931Z,43.13
2019-02-18T07:59:56.805Z,42.80
2019-02-18T08:01:32.012Z,43.28
2019-02-18T08:03:07.224Z,42.27
2019-02-18T08:04:42.425Z,43.60
2019-02-18T08:06:17.629Z,39.27
2019-02-18T08:07:52.846Z,39.37
2019-02-18T08:09:28.047Z,41.97
2019-02-18T08:11:03.264Z,39.50
2019-02-18T08:12:38.711Z,40.03
2019-02-18T08:14:13.913Z,42.65
2019-02-18T08:15:49.145Z,40.77
2019-02-18T08:17:24.340Z,44.33
2019-02-18T08:18:59.550Z,38.73
2019-02-18T08:20:34.758Z,45.15
2019-02-18T08:22:09.951Z,45.77
2019-02-18T08:23:45.168Z,40.43
2019-02-18T08:25:20.379Z,42.77
2019-02-18T08:26:55.571Z,41.40
2019-02-18T08:28:30.763Z,44.73
2019-02-18T08:30:14.660Z,40.55
2019-02-18T08:31:49.932Z,43.07
2019-02-18T08:33:26.101Z,40.43
2019-02-18T08:35:01.277Z,43.83
2019-02-18T08:36:36.467Z,43.00
2019-02-18T08:38:11.677Z,43.40
2019-02-18T08:39:46.874Z,42.10
2019-02-18T08:41:22.102Z,38.77
2019-02-18T08:43:01.452Z,41.07
2019-02-18T08:44:36.995Z,41.80
2019-02-18T08:46:12.229Z,42.05
2019-02-18T08:47:47.685Z,42.03
2019-02-18T08:49:22.906Z,45.03
2019-02-18T08:50:58.155Z,42.27
2019-02-18T08:52:33.331Z,40.92
2019-02-18T08:54:08.532Z,41.25
2019-02-18T08:55:44.001Z,40.67
2019-02-18T08:57:19.196Z,43.00
2019-02-18T08:58:54.381Z,42.97
2019-02-18T09:00:29.593Z,39.80
2019-02-18T09:02:04.804Z,41.40
2019-02-18T09:03:39.994Z,41.37
2019-02-18T09:05:15.250Z,39.75
2019-02-18T09:06:50.390Z,39.60
2019-02-18T09:08:25.617Z,40.73
2019-02-18T09:10:01.097Z,39.13
2019-02-18T09:11:36.575Z,38.88
2019-02-18T09:13:12.039Z,38.10
2019-02-18T09:14:47.515Z,40.20
2019-02-18T09:16:23.010Z,38.70
2019-02-18T09:17:58.208Z,40.60
2019-02-18T09:19:33.387Z,44.48
2019-02-18T09:21:08.586Z,45.65
2019-02-18T09:22:45.694Z,41.60
2019-02-18T09:24:22.532Z,42.47
2019-02-18T09:25:58.104Z,41.37
2019-02-18T09:27:33.294Z,39.67
2019-02-18T09:29:08.486Z,35.90
2019-02-18T09:30:45.361Z,39.78
2019-02-18T09:32:20.544Z,38.90
2019-02-18T09:33:55.780Z,39.10
2019-02-18T09:35:30.987Z,40.03
2019-02-18T09:37:06.289Z,45.57
2019-02-18T09:38:41.485Z,41.92
2019-02-18T09:40:17.151Z,35.43
2019-02-18T09:41:52.627Z,38.30
2019-02-18T09:43:28.818Z,40.00
2019-02-18T09:45:04.608Z,38.60
2019-02-18T09:46:40.480Z,38.10
2019-02-18T09:48:15.707Z,38.90
2019-02-18T09:49:50.907Z,38.87
2019-02-18T09:51:26.132Z,39.57
2019-02-18T09:53:02.540Z,40.80
2019-02-18T09:54:37.769Z,37.63
2019-02-18T09:56:13.065Z,38.33
2019-02-18T09:57:48.250Z,40.37
2019-02-18T09:59:23.447Z,42.27
2019-02-18T10:00:58.657Z,39.07
2019-02-18T10:02:33.962Z,37.88
2019-02-18T10:04:09.433Z,39.70
2019-02-18T10:05:44.646Z,36.03
2019-02-18T10:07:19.850Z,38.70
2019-02-18T10:08:55.056Z,39.50
2019-02-18T10:10:30.259Z,41.40
2019-02-18T10:12:05.495Z,40.60
2019-02-18T10:13:40.687Z,40.23
2019-02-18T10:15:15.936Z,38.30
2019-02-18T10:16:51.174Z,37.30
2019-02-18T10:18:26.659Z,40.40
2019-02-18T10:20:01.863Z,39.30
2019-02-18T10:21:37.102Z,34.90
2019-02-18T10:23:12.343Z,43.03
2019-02-18T10:24:50.555Z,37.70
2019-02-18T10:26:24.430Z,40.10
2019-02-18T10:27:59.638Z,36.10
2019-02-18T10:29:34.883Z,37.53
2019-02-18T10:31:10.112Z,38.30
2019-02-18T10:32:45.309Z,35.85
2019-02-18T10:34:20.802Z,37.37
2019-02-18T10:35:56.003Z,42.50
2019-02-18T10:37:31.487Z,34.23
2019-02-18T10:39:07.012Z,33.90
2019-02-18T10:40:42.226Z,39.27
2019-02-18T10:42:17.459Z,35.43
2019-02-18T10:43:54.764Z,36.27
2019-02-18T10:45:29.488Z,35.27
2019-02-18T10:47:05.763Z,35.58
2019-02-18T10:48:41.054Z,35.25
2019-02-18T10:50:16.286Z,38.48
2019-02-18T10:51:51.547Z,37.27
2019-02-18T10:53:26.779Z,38.33
2019-02-18T10:55:02.066Z,36.73
2019-02-18T10:56:37.298Z,35.30
2019-02-18T10:58:12.514Z,37.98
2019-02-18T10:59:47.713Z,36.87
2019-02-18T11:01:22.920Z,36.43
2019-02-18T11:02:58.538Z,35.90
2019-02-18T11:04:33.835Z,36.03
2019-02-18T11:06:10.010Z,37.90
2019-02-18T11:07:45.246Z,38.70
2019-02-18T11:09:20.448Z,39.37
2019-02-18T11:10:55.648Z,37.63
2019-02-18T11:12:30.866Z,37.30
2019-02-18T11:14:06.063Z,38.85
2019-02-18T11:15:41.450Z,35.27
2019-02-18T11:17:16.662Z,34.30
2019-02-18T11:18:51.859Z,35.23
2019-02-18T11:20:27.053Z,36.67
2019-02-18T11:22:02.282Z,33.87
2019-02-18T11:23:37.471Z,34.50
2019-02-18T11:25:17.407Z,34.80
2019-02-18T11:26:53.588Z,33.37
2019-02-18T11:28:28.777Z,38.73
2019-02-18T11:30:07.730Z,35.45
2019-02-18T11:31:43.000Z,34.65
2019-02-18T11:33:18.215Z,34.37
2019-02-18T11:34:53.407Z,36.73
2019-02-18T11:36:28.863Z,34.43
2019-02-18T11:38:04.053Z,34.33
2019-02-18T11:39:39.317Z,34.10
2019-02-18T11:41:14.519Z,34.83
2019-02-18T11:42:49.760Z,36.33
2019-02-18T11:44:25.172Z,36.53
2019-02-18T11:46:00.374Z,37.13
2019-02-18T11:47:35.586Z,34.33
2019-02-18T11:49:10.793Z,35.25
2019-02-18T11:50:46.003Z,30.23
2019-02-18T11:52:21.585Z,30.80
2019-02-18T11:53:56.775Z,34.97
2019-02-18T11:55:31.971Z,34.37
2019-02-18T11:57:07.178Z,34.13
2019-02-18T11:58:42.361Z,35.10
2019-02-18T12:00:17.985Z,33.10
2019-02-18T12:01:53.192Z,34.27
2019-02-18T12:03:29.141Z,32.67
2019-02-18T12:05:04.718Z,34.00
2019-02-18T12:06:39.950Z,36.50
2019-02-18T12:08:15.169Z,33.75
2019-02-18T12:09:50.357Z,37.00
2019-02-18T12:11:25.551Z,31.20
2019-02-18T12:13:00.746Z,37.43
2019-02-18T12:14:35.961Z,36.53
2019-02-18T12:16:11.209Z,33.92
2019-02-18T12:17:46.397Z,32.70
2019-02-18T12:19:21.594Z,38.10
2019-02-18T12:20:57.073Z,36.50
2019-02-18T12:22:32.271Z,31.80
2019-02-18T12:24:07.470Z,36.67
2019-02-18T12:25:42.766Z,31.40
2019-02-18T12:27:17.969Z,32.63
2019-02-18T12:28:53.212Z,33.50
2019-02-18T12:30:29.626Z,33.93
2019-02-18T12:32:05.106Z,31.17
2019-02-18T12:33:40.393Z,33.00
2019-02-18T12:35:15.650Z,29.42
2019-02-18T12:36:51.839Z,31.43
2019-02-18T12:38:27.045Z,34.73
2019-02-18T12:40:02.256Z,34.83
2019-02-18T12:41:47.829Z,36.42
2019-02-18T12:43:14.294Z,30.17
2019-02-18T12:44:49.494Z,29.13
2019-02-18T12:46:24.711Z,30.87
2019-02-18T12:47:59.927Z,28.00
2019-02-18T12:49:35.146Z,30.53
2019-02-18T12:51:10.343Z,26.47
2019-02-18T12:52:45.542Z,32.87
2019-02-18T12:54:20.836Z,35.80
2019-02-18T12:55:56.034Z,33.67
2019-02-18T12:57:31.273Z,31.60
2019-02-18T12:59:06.555Z,34.37
2019-02-18T13:00:41.767Z,32.13
2019-02-18T13:02:16.982Z,28.92
2019-02-18T13:03:52.462Z,26.70
2019-02-18T13:05:27.649Z,29.40
2019-02-18T13:07:02.852Z,28.27
2019-02-18T13:08:38.078Z,31.90
2019-02-18T13:10:14.052Z,32.05
2019-02-18T13:11:58.761Z,33.33
2019-02-18T13:13:26.239Z,31.67
2019-02-18T13:15:01.455Z,31.83
2019-02-18T13:16:36.913Z,30.55
2019-02-18T13:18:12.132Z,29.55
2019-02-18T13:19:47.310Z,30.93
2019-02-18T13:21:22.511Z,30.20
2019-02-18T13:22:57.716Z,26.50
2019-02-18T13:24:33.082Z,29.87
2019-02-18T13:26:08.313Z,27.30
2019-02-18T13:27:43.806Z,30.55
2019-02-18T13:29:19.059Z,25.30
2019-02-18T13:30:54.272Z,31.53
2019-02-18T13:32:29.958Z,29.35
2019-02-18T13:34:05.423Z,28.73
2019-02-18T13:35:40.631Z,28.92
2019-02-18T13:37:16.169Z,26.57
2019-02-18T13:38:51.383Z,27.97
2019-02-18T13:40:26.590Z,26.37
2019-02-18T13:42:07.386Z,28.17
2019-02-18T13:43:38.614Z,23.47
2019-02-18T13:45:13.850Z,26.12
2019-02-18T13:46:49.317Z,25.23
2019-02-18T13:48:24.521Z,24.20
2019-02-18T13:50:00.210Z,27.40
2019-02-18T13:51:35.423Z,25.93
2019-02-18T13:53:10.647Z,27.85
2019-02-18T13:54:45.841Z,30.23
2019-02-18T13:56:21.033Z,31.57
2019-02-18T13:57:56.429Z,30.67
2019-02-18T13:59:31.647Z,30.37
2019-02-18T14:01:06.916Z,26.12
2019-02-18T14:02:42.558Z,29.80
2019-02-18T14:04:17.899Z,28.12
2019-02-18T14:05:53.088Z,29.03
2019-02-18T14:07:28.322Z,30.03
2019-02-18T14:09:04.603Z,26.30
2019-02-18T14:10:39.813Z,27.60
2019-02-18T14:12:16.406Z,25.33
2019-02-18T14:13:51.735Z,25.03
2019-02-18T14:15:27.922Z,26.07
2019-02-18T14:17:04.763Z,28.57
2019-02-18T14:18:41.346Z,28.42
2019-02-18T14:20:18.511Z,30.20
2019-02-18T14:21:54.679Z,27.53
2019-02-18T14:23:30.876Z,27.63
2019-02-18T14:25:08.507Z,29.82
2019-02-18T14:26:43.713Z,26.60
2019-02-18T14:28:18.907Z,24.03
2019-02-18T14:29:54.102Z,27.70
2019-02-18T14:31:30.727Z,30.50
2019-02-18T14:33:06.207Z,24.67
2019-02-18T14:34:41.585Z,29.20
2019-02-18T14:36:17.051Z,27.67
2019-02-18T14:37:52.263Z,26.30
2019-02-18T14:39:27.546Z,26.37
2019-02-18T14:41:02.760Z,30.57
2019-02-18T14:42:37.947Z,23.80
2019-02-18T14:44:14.171Z,28.85
2019-02-18T14:45:49.602Z,26.27
2019-02-18T14:47:25.168Z,29.00
2019-02-18T14:49:01.386Z,28.00
2019-02-18T14:50:38.215Z,25.90
2019-02-18T14:52:13.405Z,30.27
2019-02-18T14:53:48.602Z,29.70
2019-02-18T14:55:26.896Z,25.83
2019-02-18T14:57:02.088Z,27.10
2019-02-18T14:58:37.587Z,29.50
2019-02-18T15:00:22.314Z,28.12
2019-02-18T15:01:57.527Z,26.33
2019-02-18T15:03:32.812Z,26.40
2019-02-18T15:05:08.026Z,27.82
2019-02-18T15:06:43.195Z,29.35
2019-02-18T15:08:18.410Z,28.85
2019-02-18T15:09:53.627Z,22.83
2019-02-18T15:11:28.828Z,25.90
2019-02-18T15:13:04.029Z,26.50
2019-02-18T15:14:39.216Z,23.37
2019-02-18T15:16:14.408Z,22.82
2019-02-18T15:17:49.604Z,28.33
2019-02-18T15:19:24.892Z,25.53
2019-02-18T15:21:02.734Z,26.35
2019-02-18T15:22:37.940Z,27.27
2019-02-18T15:24:13.137Z,26.65
2019-02-18T15:25:48.330Z,27.17
2019-02-18T15:27:23.536Z,30.93
2019-02-18T15:28:59.023Z,30.07
2019-02-18T15:30:35.320Z,26.40
2019-02-18T15:32:10.795Z,26.77
2019-02-18T15:33:46.028Z,28.33
2019-02-18T15:35:21.228Z,25.43
2019-02-18T15:36:56.439Z,22.43
2019-02-18T15:38:31.653Z,25.77
2019-02-18T15:40:10.753Z,29.90
2019-02-18T15:41:45.949Z,24.92
2019-02-18T15:43:21.156Z,27.07
2019-02-18T15:44:56.363Z,24.57
2019-02-18T15:46:31.579Z,26.83
2019-02-18T15:48:06.920Z,24.53
2019-02-18T15:49:42.129Z,24.57
2019-02-18T15:51:17.320Z,27.48
2019-02-18T15:52:52.517Z,25.63
2019-02-18T15:54:27.730Z,21.33
2019-02-18T15:56:02.932Z,23.83
2019-02-18T15:57:38.131Z,24.20
2019-02-18T15:59:14.317Z,23.07
2019-02-18T16:00:49.601Z,24.93
2019-02-18T16:02:24.938Z,22.90
2019-02-18T16:04:01.341Z,23.70
2019-02-18T16:05:38.168Z,21.02
2019-02-18T16:07:13.368Z,22.25
2019-02-18T16:08:48.657Z,24.87
2019-02-18T16:10:23.847Z,25.43
2019-02-18T16:11:59.037Z,25.97
2019-02-18T16:13:34.253Z,25.83
2019-02-18T16:15:11.466Z,24.63
2019-02-18T16:16:46.666Z,22.02
2019-02-18T16:18:21.868Z,22.37
2019-02-18T16:19:57.087Z,24.43
2019-02-18T16:21:32.286Z,24.13
2019-02-18T16:23:07.496Z,26.15
2019-02-18T16:24:42.699Z,24.57
2019-02-18T16:26:17.911Z,22.75
2019-02-18T16:27:53.109Z,27.60
2019-02-18T16:29:28.508Z,23.03
2019-02-18T16:31:03.710Z,24.57
2019-02-18T16:32:38.913Z,24.87
2019-02-18T16:34:14.131Z,25.08
2019-02-18T16:35:49.330Z,23.75
2019-02-18T16:37:37.805Z,19.57
2019-02-18T16:39:13.021Z,23.77
2019-02-18T16:40:48.207Z,26.23
2019-02-18T16:42:23.399Z,27.90
2019-02-18T16:43:58.672Z,26.10
2019-02-18T16:45:35.123Z,23.93
2019-02-18T16:47:10.839Z,25.95
2019-02-18T16:48:46.298Z,22.50
2019-02-18T16:50:21.798Z,23.93
2019-02-18T16:51:56.991Z,22.97
2019-02-18T16:53:32.369Z,22.00
2019-02-18T16:55:11.892Z,22.22
2019-02-18T16:56:47.091Z,22.45
2019-02-18T16:58:22.280Z,24.43
2019-02-18T16:59:57.483Z,25.33
2019-02-18T17:01:33.029Z,22.53
2019-02-18T17:03:08.575Z,24.40
2019-02-18T17:04:44.108Z,24.27
2019-02-18T17:06:19.296Z,24.83
2019-02-18T17:07:54.506Z,22.80
2019-02-18T17:09:29.705Z,26.30
2019-02-18T17:11:04.891Z,25.10
2019-02-18T17:12:40.093Z,23.67
2019-02-18T17:14:15.375Z,25.90
2019-02-18T17:15:50.564Z,23.93
2019-02-18T17:17:26.033Z,27.40
2019-02-18T17:19:02.361Z,26.50
2019-02-18T17:20:37.558Z,24.90
2019-02-18T17:22:12.756Z,25.60
2019-02-18T17:23:47.947Z,24.12
2019-02-18T17:25:23.148Z,23.60
2019-02-18T17:26:58.339Z,23.07
2019-02-18T17:28:33.572Z,23.60
2019-02-18T17:30:13.181Z,23.98
2019-02-18T17:31:48.381Z,22.67
2019-02-18T17:33:23.588Z,26.93
2019-02-18T17:34:58.869Z,25.30
2019-02-18T17:36:34.064Z,25.67
2019-02-18T17:38:09.524Z,25.65
2019-02-18T17:39:44.732Z,23.80
2019-02-18T17:41:20.194Z,26.87
2019-02-18T17:42:55.566Z,24.10
2019-02-18T17:44:30.784Z,24.83
2019-02-18T17:46:05.975Z,24.53
2019-02-18T17:47:41.165Z,25.88
2019-02-18T17:49:16.372Z,25.32
2019-02-18T17:50:51.570Z,25.27
2019-02-18T17:52:26.763Z,25.93
2019-02-18T17:54:02.222Z,26.73
2019-02-18T17:55:37.603Z,22.67
2019-02-18T17:57:13.045Z,24.32
2019-02-18T17:58:48.244Z,23.17
2019-02-18T18:00:26.404Z,23.17
2019-02-18T18:02:01.601Z,21.90
2019-02-18T18:03:36.975Z,21.73
2019-02-18T18:05:12.172Z,22.77
2019-02-18T18:06:47.362Z,23.83
2019-02-18T18:08:22.651Z,23.20
2019-02-18T18:09:57.848Z,23.03
2019-02-18T18:11:33.806Z,24.72
2019-02-18T18:13:08.998Z,23.40
2019-02-18T18:14:44.464Z,25.70
2019-02-18T18:16:19.731Z,26.40
2019-02-18T18:17:54.923Z,30.83
2019-02-18T18:19:30.130Z,34.27
2019-02-18T18:21:05.312Z,34.63
2019-02-18T18:22:40.889Z,37.17
2019-02-18T18:24:16.078Z,35.13
2019-02-18T18:25:51.321Z,29.87
2019-02-18T18:27:26.459Z,34.50
2019-02-18T18:29:01.656Z,31.70
2019-02-18T18:30:36.859Z,29.83
2019-02-18T18:32:12.044Z,29.10
2019-02-18T18:33:47.237Z,31.93
2019-02-18T18:35:22.444Z,32.23
2019-02-18T18:36:57.721Z,30.23
2019-02-18T18:38:34.308Z,29.13
2019-02-18T18:40:13.505Z,26.63
2019-02-18T18:41:48.700Z,29.27
2019-02-18T18:43:24.155Z,31.80
2019-02-18T18:44:59.432Z,27.43
2019-02-18T18:46:34.952Z,24.57
2019-02-18T18:48:10.397Z,27.53
2019-02-18T18:49:46.271Z,30.60
2019-02-18T18:51:21.461Z,28.53
2019-02-18T18:52:57.577Z,27.40
2019-02-18T18:54:32.773Z,29.60
2019-02-18T18:56:07.990Z,28.33
2019-02-18T18:57:43.185Z,27.20
2019-02-18T18:59:18.393Z,26.67
2019-02-18T19:00:53.608Z,26.17
2019-02-18T19:02:29.085Z,28.33
2019-02-18T19:04:05.285Z,27.07
2019-02-18T19:05:40.478Z,25.70
2019-02-18T19:07:15.661Z,27.85
2019-02-18T19:08:50.903Z,28.77
2019-02-18T19:10:27.796Z,29.73
2019-02-18T19:12:02.996Z,24.40
2019-02-18T19:13:42.042Z,28.85
2019-02-18T19:15:17.884Z,27.28
2019-02-18T19:16:53.077Z,23.60
2019-02-18T19:18:28.265Z,27.07
2019-02-18T19:20:03.539Z,25.67
2019-02-18T19:21:38.802Z,26.13
2019-02-18T19:23:13.994Z,26.50
2019-02-18T19:24:49.186Z,27.47
2019-02-18T19:26:24.390Z,27.40
2019-02-18T19:27:59.846Z,25.17
2019-02-18T19:29:35.220Z,28.47
2019-02-18T19:31:10.456Z,23.43
2019-02-18T19:32:45.654Z,24.00
2019-02-18T19:34:20.845Z,23.70
2019-02-18T19:35:56.059Z,22.93
2019-02-18T19:37:31.518Z,22.62
2019-02-18T19:39:07.242Z,25.37
2019-02-18T19:40:42.563Z,29.42
2019-02-18T19:42:17.857Z,24.72
2019-02-18T19:43:53.309Z,26.40
2019-02-18T19:45:28.511Z,24.20
2019-02-18T19:47:04.006Z,25.33
2019-02-18T19:48:39.197Z,19.97
2019-02-18T19:50:14.487Z,25.77
2019-02-18T19:51:49.924Z,23.77
2019-02-18T19:53:25.212Z,27.07
2019-02-18T19:55:00.421Z,22.47
2019-02-18T19:56:35.712Z,23.87
2019-02-18T19:58:10.970Z,20.07
2019-02-18T19:59:46.258Z,23.20
2019-02-18T20:01:21.463Z,21.87
2019-02-18T20:02:56.944Z,28.23
2019-02-18T20:04:35.615Z,26.27
2019-02-18T20:06:10.831Z,24.83
2019-02-18T20:07:46.019Z,23.83
2019-02-18T20:09:21.266Z,22.37
2019-02-18T20:10:56.493Z,26.30
2019-02-18T20:12:32.005Z,25.20
2019-02-18T20:14:07.317Z,24.80
2019-02-18T20:15:42.665Z,24.83
2019-02-18T20:17:17.850Z,25.50
2019-02-18T20:18:53.123Z,27.00
2019-02-18T20:20:28.317Z,30.93
2019-02-18T20:22:03.512Z,27.57
2019-02-18T20:23:38.720Z,27.07
2019-02-18T20:25:14.166Z,26.00
2019-02-18T20:26:49.426Z,23.37
2019-02-18T20:28:24.874Z,25.23
2019-02-18T20:30:00.146Z,24.17
2019-02-18T20:31:35.874Z,24.07
2019-02-18T20:33:11.087Z,25.00
2019-02-18T20:34:46.277Z,22.85